sensor_id;sensor_type;location;lat;lon;timestamp;P1;durP1;ratioP1;P2;durP2;ratioP2
26474;SDS011;14161;52.270;10.334;2022-07-22T00:00:58;5.55;;;5.05;;
26474;SDS011;14161;52.270;10.334;2022-07-22T00:03:24;5.15;;;4.40;;
26474;SDS011;14161;52.270;10.334;2022-07-22T00:05:50;5.38;;;4.65;;
26474;SDS011;14161;52.270;10.334;2022-07-22T00:08:15;5.70;;;4.50;;
26474;SDS011;14161;52.270;10.334;2022-07-22T00:10:43;4.68;;;4.28;;
26474;SDS011;14161;52.270;10.334;2022-07-22T00:13:09;5.45;;;4.90;;
26474;SDS011;14161;52.270;10.334;2022-07-22T00:15:34;5.95;;;4.40;;
26474;SDS011;14161;52.270;10.334;2022-07-22T00:18:00;5.38;;;4.40;;
26474;SDS011;14161;52.270;10.334;2022-07-22T00:20:25;5.00;;;4.15;;
26474;SDS011;14161;52.270;10.334;2022-07-22T00:22:51;4.88;;;4.32;;
26474;SDS011;14161;52.270;10.334;2022-07-22T00:25:16;5.13;;;4.63;;
26474;SDS011;14161;52.270;10.334;2022-07-22T00:27:42;5.13;;;3.92;;
26474;SDS011;14161;52.270;10.334;2022-07-22T00:30:07;6.90;;;4.60;;
26474;SDS011;14161;52.270;10.334;2022-07-22T00:32:33;4.88;;;3.78;;
26474;SDS011;14161;52.270;10.334;2022-07-22T00:34:59;4.50;;;4.10;;
26474;SDS011;14161;52.270;10.334;2022-07-22T00:37:24;4.20;;;3.80;;
26474;SDS011;14161;52.270;10.334;2022-07-22T00:39:50;4.65;;;4.25;;
26474;SDS011;14161;52.270;10.334;2022-07-22T00:42:15;6.32;;;3.40;;
26474;SDS011;14161;52.270;10.334;2022-07-22T00:44:41;4.10;;;3.72;;
26474;SDS011;14161;52.270;10.334;2022-07-22T00:47:06;6.40;;;4.35;;
26474;SDS011;14161;52.270;10.334;2022-07-22T00:49:32;5.18;;;4.68;;
26474;SDS011;14161;52.270;10.334;2022-07-22T00:51:57;4.07;;;3.67;;
26474;SDS011;14161;52.270;10.334;2022-07-22T00:54:23;5.45;;;4.40;;
26474;SDS011;14161;52.270;10.334;2022-07-22T00:56:48;4.95;;;4.13;;
26474;SDS011;14161;52.270;10.334;2022-07-22T00:59:14;4.20;;;3.80;;
26474;SDS011;14161;52.270;10.334;2022-07-22T01:01:40;4.93;;;3.70;;
26474;SDS011;14161;52.270;10.334;2022-07-22T01:04:05;4.38;;;3.97;;
26474;SDS011;14161;52.270;10.334;2022-07-22T01:06:31;4.28;;;3.88;;
26474;SDS011;14161;52.270;10.334;2022-07-22T01:08:57;5.60;;;4.88;;
26474;SDS011;14161;52.270;10.334;2022-07-22T01:11:24;5.88;;;5.25;;
26474;SDS011;14161;52.270;10.334;2022-07-22T01:13:50;4.82;;;4.32;;
26474;SDS011;14161;52.270;10.334;2022-07-22T01:16:16;4.88;;;4.45;;
26474;SDS011;14161;52.270;10.334;2022-07-22T01:18:42;5.45;;;4.53;;
26474;SDS011;14161;52.270;10.334;2022-07-22T01:21:08;4.43;;;4.03;;
26474;SDS011;14161;52.270;10.334;2022-07-22T01:23:35;5.25;;;4.32;;
26474;SDS011;14161;52.270;10.334;2022-07-22T01:26:01;3.95;;;3.55;;
26474;SDS011;14161;52.270;10.334;2022-07-22T01:28:27;4.47;;;3.58;;
26474;SDS011;14161;52.270;10.334;2022-07-22T01:30:52;3.92;;;3.60;;
26474;SDS011;14161;52.270;10.334;2022-07-22T01:33:19;4.57;;;3.85;;
26474;SDS011;14161;52.270;10.334;2022-07-22T01:35:45;4.47;;;4.07;;
26474;SDS011;14161;52.270;10.334;2022-07-22T01:38:11;4.00;;;3.70;;
26474;SDS011;14161;52.270;10.334;2022-07-22T01:40:37;4.45;;;4.05;;
26474;SDS011;14161;52.270;10.334;2022-07-22T01:43:03;4.18;;;3.78;;
26474;SDS011;14161;52.270;10.334;2022-07-22T01:45:28;4.50;;;4.10;;
26474;SDS011;14161;52.270;10.334;2022-07-22T01:47:54;4.32;;;3.92;;
26474;SDS011;14161;52.270;10.334;2022-07-22T01:50:19;5.28;;;4.78;;
26474;SDS011;14161;52.270;10.334;2022-07-22T01:52:45;4.78;;;4.35;;
26474;SDS011;14161;52.270;10.334;2022-07-22T01:55:10;6.55;;;5.35;;
26474;SDS011;14161;52.270;10.334;2022-07-22T01:57:37;5.35;;;4.85;;
26474;SDS011;14161;52.270;10.334;2022-07-22T02:00:13;5.85;;;4.90;;
26474;SDS011;14161;52.270;10.334;2022-07-22T02:02:43;6.65;;;5.10;;
26474;SDS011;14161;52.270;10.334;2022-07-22T02:05:09;5.82;;;5.32;;
26474;SDS011;14161;52.270;10.334;2022-07-22T02:07:35;5.95;;;4.60;;
26474;SDS011;14161;52.270;10.334;2022-07-22T02:10:02;5.43;;;4.90;;
26474;SDS011;14161;52.270;10.334;2022-07-22T02:12:29;5.85;;;5.32;;
26474;SDS011;14161;52.270;10.334;2022-07-22T02:14:54;5.75;;;5.25;;
26474;SDS011;14161;52.270;10.334;2022-07-22T02:17:20;5.43;;;4.93;;
26474;SDS011;14161;52.270;10.334;2022-07-22T02:19:45;5.38;;;4.88;;
26474;SDS011;14161;52.270;10.334;2022-07-22T02:22:11;5.38;;;4.75;;
26474;SDS011;14161;52.270;10.334;2022-07-22T02:24:37;8.23;;;5.00;;
26474;SDS011;14161;52.270;10.334;2022-07-22T02:27:03;7.68;;;5.68;;
26474;SDS011;14161;52.270;10.334;2022-07-22T02:29:29;6.50;;;5.22;;
26474;SDS011;14161;52.270;10.334;2022-07-22T02:31:55;5.07;;;4.28;;
26474;SDS011;14161;52.270;10.334;2022-07-22T02:34:21;5.13;;;4.70;;
26474;SDS011;14161;52.270;10.334;2022-07-22T02:36:46;4.45;;;4.03;;
26474;SDS011;14161;52.270;10.334;2022-07-22T02:39:12;4.20;;;3.83;;
26474;SDS011;14161;52.270;10.334;2022-07-22T02:41:38;6.22;;;4.82;;
26474;SDS011;14161;52.270;10.334;2022-07-22T02:44:04;5.45;;;4.57;;
26474;SDS011;14161;52.270;10.334;2022-07-22T02:46:30;5.03;;;4.55;;
26474;SDS011;14161;52.270;10.334;2022-07-22T02:49:01;5.15;;;4.68;;
26474;SDS011;14161;52.270;10.334;2022-07-22T02:51:28;5.50;;;4.90;;
26474;SDS011;14161;52.270;10.334;2022-07-22T02:53:55;6.03;;;4.75;;
26474;SDS011;14161;52.270;10.334;2022-07-22T02:56:21;5.85;;;5.32;;
26474;SDS011;14161;52.270;10.334;2022-07-22T02:58:47;6.85;;;5.13;;
26474;SDS011;14161;52.270;10.334;2022-07-22T03:01:17;5.30;;;4.80;;
26474;SDS011;14161;52.270;10.334;2022-07-22T03:03:49;6.90;;;5.18;;
26474;SDS011;14161;52.270;10.334;2022-07-22T03:06:15;6.70;;;4.95;;
26474;SDS011;14161;52.270;10.334;2022-07-22T03:08:45;5.82;;;5.32;;
26474;SDS011;14161;52.270;10.334;2022-07-22T03:11:12;6.15;;;5.55;;
26474;SDS011;14161;52.270;10.334;2022-07-22T03:13:38;6.63;;;6.03;;
26474;SDS011;14161;52.270;10.334;2022-07-22T03:16:05;5.72;;;5.13;;
26474;SDS011;14161;52.270;10.334;2022-07-22T03:18:30;6.07;;;5.25;;
26474;SDS011;14161;52.270;10.334;2022-07-22T03:20:56;6.68;;;5.97;;
26474;SDS011;14161;52.270;10.334;2022-07-22T03:23:21;6.40;;;5.60;;
26474;SDS011;14161;52.270;10.334;2022-07-22T03:25:47;7.70;;;5.82;;
26474;SDS011;14161;52.270;10.334;2022-07-22T03:28:12;6.45;;;5.85;;
26474;SDS011;14161;52.270;10.334;2022-07-22T03:30:38;6.15;;;5.55;;
26474;SDS011;14161;52.270;10.334;2022-07-22T03:33:04;6.68;;;5.90;;
26474;SDS011;14161;52.270;10.334;2022-07-22T03:35:33;5.45;;;4.95;;
26474;SDS011;14161;52.270;10.334;2022-07-22T03:37:59;4.70;;;4.28;;
26474;SDS011;14161;52.270;10.334;2022-07-22T03:40:27;4.20;;;3.72;;
26474;SDS011;14161;52.270;10.334;2022-07-22T03:42:53;3.78;;;3.45;;
26474;SDS011;14161;52.270;10.334;2022-07-22T03:45:18;3.33;;;2.50;;
26474;SDS011;14161;52.270;10.334;2022-07-22T03:47:44;2.85;;;2.60;;
26474;SDS011;14161;52.270;10.334;2022-07-22T03:50:10;3.05;;;2.75;;
26474;SDS011;14161;52.270;10.334;2022-07-22T03:52:35;3.88;;;2.88;;
26474;SDS011;14161;52.270;10.334;2022-07-22T03:55:05;3.30;;;3.00;;
26474;SDS011;14161;52.270;10.334;2022-07-22T03:57:31;3.78;;;3.33;;
26474;SDS011;14161;52.270;10.334;2022-07-22T04:00:03;4.40;;;3.60;;
26474;SDS011;14161;52.270;10.334;2022-07-22T04:02:39;3.78;;;3.42;;
26474;SDS011;14161;52.270;10.334;2022-07-22T04:05:05;4.50;;;4.00;;
26474;SDS011;14161;52.270;10.334;2022-07-22T04:07:31;5.15;;;4.35;;
26474;SDS011;14161;52.270;10.334;2022-07-22T04:09:57;6.00;;;4.28;;
26474;SDS011;14161;52.270;10.334;2022-07-22T04:12:37;4.35;;;3.92;;
26474;SDS011;14161;52.270;10.334;2022-07-22T04:15:11;4.00;;;3.60;;
26474;SDS011;14161;52.270;10.334;2022-07-22T04:17:37;4.50;;;3.40;;
26474;SDS011;14161;52.270;10.334;2022-07-22T04:20:03;4.43;;;3.45;;
26474;SDS011;14161;52.270;10.334;2022-07-22T04:22:35;5.30;;;3.28;;
26474;SDS011;14161;52.270;10.334;2022-07-22T04:25:01;3.50;;;2.90;;
26474;SDS011;14161;52.270;10.334;2022-07-22T04:27:27;3.22;;;2.78;;
26474;SDS011;14161;52.270;10.334;2022-07-22T04:29:52;3.58;;;2.67;;
26474;SDS011;14161;52.270;10.334;2022-07-22T04:32:18;2.78;;;2.53;;
26474;SDS011;14161;52.270;10.334;2022-07-22T04:34:44;3.25;;;2.75;;
26474;SDS011;14161;52.270;10.334;2022-07-22T04:37:09;3.15;;;2.85;;
26474;SDS011;14161;52.270;10.334;2022-07-22T04:39:35;3.40;;;3.10;;
26474;SDS011;14161;52.270;10.334;2022-07-22T04:42:01;3.60;;;3.30;;
26474;SDS011;14161;52.270;10.334;2022-07-22T04:44:28;4.50;;;2.95;;
26474;SDS011;14161;52.270;10.334;2022-07-22T04:46:55;4.75;;;3.22;;
26474;SDS011;14161;52.270;10.334;2022-07-22T04:49:20;4.43;;;2.50;;
26474;SDS011;14161;52.270;10.334;2022-07-22T04:51:46;3.10;;;2.13;;
26474;SDS011;14161;52.270;10.334;2022-07-22T04:54:20;3.75;;;2.92;;
26474;SDS011;14161;52.270;10.334;2022-07-22T04:56:45;3.05;;;2.75;;
26474;SDS011;14161;52.270;10.334;2022-07-22T04:59:11;4.57;;;2.88;;
26474;SDS011;14161;52.270;10.334;2022-07-22T05:01:36;3.15;;;2.70;;
26474;SDS011;14161;52.270;10.334;2022-07-22T05:04:02;3.38;;;3.00;;
26474;SDS011;14161;52.270;10.334;2022-07-22T05:06:28;4.10;;;2.72;;
26474;SDS011;14161;52.270;10.334;2022-07-22T05:08:54;3.45;;;2.80;;
26474;SDS011;14161;52.270;10.334;2022-07-22T05:11:19;3.42;;;3.13;;
26474;SDS011;14161;52.270;10.334;2022-07-22T05:13:46;3.85;;;2.80;;
26474;SDS011;14161;52.270;10.334;2022-07-22T05:16:12;3.78;;;2.60;;
26474;SDS011;14161;52.270;10.334;2022-07-22T05:18:38;3.22;;;2.60;;
26474;SDS011;14161;52.270;10.334;2022-07-22T05:21:06;3.72;;;2.80;;
26474;SDS011;14161;52.270;10.334;2022-07-22T05:23:33;3.10;;;2.75;;
26474;SDS011;14161;52.270;10.334;2022-07-22T05:25:59;3.92;;;2.50;;
26474;SDS011;14161;52.270;10.334;2022-07-22T05:28:25;2.70;;;2.50;;
26474;SDS011;14161;52.270;10.334;2022-07-22T05:30:50;3.45;;;2.88;;
26474;SDS011;14161;52.270;10.334;2022-07-22T05:33:16;3.50;;;2.88;;
26474;SDS011;14161;52.270;10.334;2022-07-22T05:36:05;4.07;;;2.72;;
26474;SDS011;14161;52.270;10.334;2022-07-22T05:38:36;3.20;;;2.53;;
26474;SDS011;14161;52.270;10.334;2022-07-22T05:41:02;2.80;;;1.80;;
26474;SDS011;14161;52.270;10.334;2022-07-22T05:43:28;5.63;;;1.98;;
26474;SDS011;14161;52.270;10.334;2022-07-22T05:45:57;3.05;;;2.33;;
26474;SDS011;14161;52.270;10.334;2022-07-22T05:48:22;2.00;;;1.80;;
26474;SDS011;14161;52.270;10.334;2022-07-22T05:50:48;2.75;;;1.67;;
26474;SDS011;14161;52.270;10.334;2022-07-22T05:53:14;3.00;;;1.90;;
26474;SDS011;14161;52.270;10.334;2022-07-22T05:55:40;3.38;;;1.80;;
26474;SDS011;14161;52.270;10.334;2022-07-22T05:58:06;2.55;;;2.20;;
26474;SDS011;14161;52.270;10.334;2022-07-22T06:00:32;4.95;;;2.20;;
26474;SDS011;14161;52.270;10.334;2022-07-22T06:02:58;3.70;;;2.85;;
26474;SDS011;14161;52.270;10.334;2022-07-22T06:05:24;2.72;;;2.45;;
26474;SDS011;14161;52.270;10.334;2022-07-22T06:07:50;4.63;;;2.35;;
26474;SDS011;14161;52.270;10.334;2022-07-22T06:10:28;2.92;;;2.25;;
26474;SDS011;14161;52.270;10.334;2022-07-22T06:12:53;2.17;;;1.92;;
26474;SDS011;14161;52.270;10.334;2022-07-22T06:15:19;3.22;;;2.08;;
26474;SDS011;14161;52.270;10.334;2022-07-22T06:17:45;3.00;;;2.35;;
26474;SDS011;14161;52.270;10.334;2022-07-22T06:20:11;3.25;;;2.50;;
26474;SDS011;14161;52.270;10.334;2022-07-22T06:22:40;2.70;;;2.45;;
26474;SDS011;14161;52.270;10.334;2022-07-22T06:25:06;3.92;;;2.17;;
26474;SDS011;14161;52.270;10.334;2022-07-22T06:27:33;3.88;;;2.70;;
26474;SDS011;14161;52.270;10.334;2022-07-22T06:29:59;3.03;;;2.70;;
26474;SDS011;14161;52.270;10.334;2022-07-22T06:32:25;5.18;;;4.10;;
26474;SDS011;14161;52.270;10.334;2022-07-22T06:35:05;3.20;;;2.83;;
26474;SDS011;14161;52.270;10.334;2022-07-22T06:37:54;7.18;;;2.67;;
26474;SDS011;14161;52.270;10.334;2022-07-22T06:40:33;3.47;;;2.08;;
26474;SDS011;14161;52.270;10.334;2022-07-22T06:43:19;3.35;;;2.58;;
26474;SDS011;14161;52.270;10.334;2022-07-22T06:46:06;2.80;;;2.30;;
26474;SDS011;14161;52.270;10.334;2022-07-22T06:48:43;4.43;;;2.67;;
26474;SDS011;14161;52.270;10.334;2022-07-22T06:51:09;2.60;;;2.40;;
26474;SDS011;14161;52.270;10.334;2022-07-22T06:53:35;2.83;;;2.45;;
26474;SDS011;14161;52.270;10.334;2022-07-22T06:56:01;2.30;;;2.10;;
26474;SDS011;14161;52.270;10.334;2022-07-22T06:58:26;2.45;;;2.15;;
26474;SDS011;14161;52.270;10.334;2022-07-22T07:00:52;3.70;;;2.42;;
26474;SDS011;14161;52.270;10.334;2022-07-22T07:03:44;2.28;;;2.08;;
26474;SDS011;14161;52.270;10.334;2022-07-22T07:06:10;3.25;;;2.58;;
26474;SDS011;14161;52.270;10.334;2022-07-22T07:08:54;3.05;;;2.20;;
26474;SDS011;14161;52.270;10.334;2022-07-22T07:11:23;4.18;;;2.00;;
26474;SDS011;14161;52.270;10.334;2022-07-22T07:13:48;2.67;;;1.85;;
26474;SDS011;14161;52.270;10.334;2022-07-22T07:16:14;2.08;;;1.88;;
26474;SDS011;14161;52.270;10.334;2022-07-22T07:18:39;1.77;;;1.67;;
26474;SDS011;14161;52.270;10.334;2022-07-22T07:21:05;2.10;;;1.90;;
26474;SDS011;14161;52.270;10.334;2022-07-22T07:23:31;3.28;;;2.10;;
26474;SDS011;14161;52.270;10.334;2022-07-22T07:25:56;3.30;;;1.65;;
26474;SDS011;14161;52.270;10.334;2022-07-22T07:28:22;1.92;;;1.23;;
26474;SDS011;14161;52.270;10.334;2022-07-22T07:30:54;1.95;;;1.45;;
26474;SDS011;14161;52.270;10.334;2022-07-22T07:33:20;2.30;;;1.58;;
26474;SDS011;14161;52.270;10.334;2022-07-22T07:35:46;1.80;;;1.27;;
26474;SDS011;14161;52.270;10.334;2022-07-22T07:38:13;2.67;;;1.30;;
26474;SDS011;14161;52.270;10.334;2022-07-22T07:40:40;2.08;;;1.23;;
26474;SDS011;14161;52.270;10.334;2022-07-22T07:43:06;1.90;;;1.45;;
26474;SDS011;14161;52.270;10.334;2022-07-22T07:45:32;1.67;;;1.38;;
26474;SDS011;14161;52.270;10.334;2022-07-22T07:47:58;1.75;;;1.33;;
26474;SDS011;14161;52.270;10.334;2022-07-22T07:50:24;3.30;;;1.48;;
26474;SDS011;14161;52.270;10.334;2022-07-22T07:52:50;2.25;;;1.40;;
26474;SDS011;14161;52.270;10.334;2022-07-22T07:55:16;3.05;;;1.50;;
26474;SDS011;14161;52.270;10.334;2022-07-22T07:57:43;1.83;;;1.60;;
26474;SDS011;14161;52.270;10.334;2022-07-22T08:00:13;2.58;;;1.63;;
26474;SDS011;14161;52.270;10.334;2022-07-22T08:02:40;5.00;;;1.88;;
26474;SDS011;14161;52.270;10.334;2022-07-22T08:05:09;3.67;;;2.30;;
26474;SDS011;14161;52.270;10.334;2022-07-22T08:07:36;3.33;;;2.60;;
26474;SDS011;14161;52.270;10.334;2022-07-22T08:10:02;3.25;;;2.58;;
26474;SDS011;14161;52.270;10.334;2022-07-22T08:12:56;4.15;;;2.75;;
26474;SDS011;14161;52.270;10.334;2022-07-22T08:15:40;5.10;;;3.20;;
26474;SDS011;14161;52.270;10.334;2022-07-22T08:18:13;4.68;;;3.47;;
26474;SDS011;14161;52.270;10.334;2022-07-22T08:20:38;4.55;;;3.88;;
26474;SDS011;14161;52.270;10.334;2022-07-22T08:23:04;5.35;;;3.97;;
26474;SDS011;14161;52.270;10.334;2022-07-22T08:25:31;3.70;;;3.22;;
26474;SDS011;14161;52.270;10.334;2022-07-22T08:27:57;4.40;;;3.92;;
26474;SDS011;14161;52.270;10.334;2022-07-22T08:30:38;4.93;;;4.40;;
26474;SDS011;14161;52.270;10.334;2022-07-22T08:33:05;6.30;;;4.65;;
26474;SDS011;14161;52.270;10.334;2022-07-22T08:35:31;4.45;;;3.92;;
26474;SDS011;14161;52.270;10.334;2022-07-22T08:37:57;4.25;;;3.85;;
26474;SDS011;14161;52.270;10.334;2022-07-22T08:40:23;5.22;;;3.90;;
26474;SDS011;14161;52.270;10.334;2022-07-22T08:42:52;4.57;;;4.10;;
26474;SDS011;14161;52.270;10.334;2022-07-22T08:45:18;6.40;;;4.38;;
26474;SDS011;14161;52.270;10.334;2022-07-22T08:47:46;5.22;;;4.20;;
26474;SDS011;14161;52.270;10.334;2022-07-22T08:50:20;6.60;;;4.05;;
26474;SDS011;14161;52.270;10.334;2022-07-22T08:52:54;6.45;;;3.55;;
26474;SDS011;14161;52.270;10.334;2022-07-22T08:55:20;7.60;;;4.13;;
26474;SDS011;14161;52.270;10.334;2022-07-22T08:57:46;4.43;;;3.88;;
26474;SDS011;14161;52.270;10.334;2022-07-22T09:00:13;4.18;;;3.78;;
26474;SDS011;14161;52.270;10.334;2022-07-22T09:02:41;4.00;;;3.55;;
26474;SDS011;14161;52.270;10.334;2022-07-22T09:05:09;4.70;;;4.20;;
26474;SDS011;14161;52.270;10.334;2022-07-22T09:07:40;4.60;;;3.92;;
26474;SDS011;14161;52.270;10.334;2022-07-22T09:10:16;4.10;;;3.65;;
26474;SDS011;14161;52.270;10.334;2022-07-22T09:13:04;4.53;;;3.40;;
26474;SDS011;14161;52.270;10.334;2022-07-22T09:15:51;3.80;;;3.30;;
26474;SDS011;14161;52.270;10.334;2022-07-22T09:18:49;5.10;;;3.92;;
26474;SDS011;14161;52.270;10.334;2022-07-22T09:21:34;6.10;;;5.20;;
26474;SDS011;14161;52.270;10.334;2022-07-22T09:24:34;5.25;;;4.45;;
26474;SDS011;14161;52.270;10.334;2022-07-22T09:27:23;5.85;;;4.22;;
26474;SDS011;14161;52.270;10.334;2022-07-22T09:30:17;4.88;;;3.97;;
26474;SDS011;14161;52.270;10.334;2022-07-22T09:32:52;4.80;;;4.25;;
26474;SDS011;14161;52.270;10.334;2022-07-22T09:35:31;7.35;;;4.18;;
26474;SDS011;14161;52.270;10.334;2022-07-22T09:37:58;4.53;;;3.88;;
26474;SDS011;14161;52.270;10.334;2022-07-22T09:40:26;2.95;;;2.72;;
26474;SDS011;14161;52.270;10.334;2022-07-22T09:42:56;7.57;;;3.38;;
26474;SDS011;14161;52.270;10.334;2022-07-22T09:45:24;4.35;;;2.97;;
26474;SDS011;14161;52.270;10.334;2022-07-22T09:47:53;4.75;;;3.28;;
26474;SDS011;14161;52.270;10.334;2022-07-22T09:50:26;4.65;;;3.53;;
26474;SDS011;14161;52.270;10.334;2022-07-22T09:53:11;3.35;;;2.92;;
26474;SDS011;14161;52.270;10.334;2022-07-22T09:55:41;5.28;;;3.05;;
26474;SDS011;14161;52.270;10.334;2022-07-22T09:58:07;3.90;;;2.70;;
26474;SDS011;14161;52.270;10.334;2022-07-22T10:00:34;3.75;;;2.20;;
26474;SDS011;14161;52.270;10.334;2022-07-22T10:03:01;1.95;;;1.80;;
26474;SDS011;14161;52.270;10.334;2022-07-22T10:05:32;2.22;;;1.83;;
26474;SDS011;14161;52.270;10.334;2022-07-22T10:08:00;4.93;;;1.55;;
26474;SDS011;14161;52.270;10.334;2022-07-22T10:10:28;3.30;;;1.80;;
26474;SDS011;14161;52.270;10.334;2022-07-22T10:12:55;3.20;;;1.33;;
26474;SDS011;14161;52.270;10.334;2022-07-22T10:15:22;3.25;;;1.85;;
26474;SDS011;14161;52.270;10.334;2022-07-22T10:17:50;6.78;;;1.70;;
26474;SDS011;14161;52.270;10.334;2022-07-22T10:20:18;2.45;;;1.73;;
26474;SDS011;14161;52.270;10.334;2022-07-22T10:23:01;3.58;;;1.50;;
26474;SDS011;14161;52.270;10.334;2022-07-22T10:25:29;4.40;;;1.98;;
26474;SDS011;14161;52.270;10.334;2022-07-22T10:27:57;2.55;;;1.73;;
26474;SDS011;14161;52.270;10.334;2022-07-22T10:30:26;2.47;;;1.88;;
26474;SDS011;14161;52.270;10.334;2022-07-22T10:35:33;2.70;;;1.70;;
26474;SDS011;14161;52.270;10.334;2022-07-22T10:38:05;5.32;;;1.58;;
26474;SDS011;14161;52.270;10.334;2022-07-22T10:43:19;1.75;;;1.40;;
26474;SDS011;14161;52.270;10.334;2022-07-22T10:45:50;1.90;;;1.40;;
26474;SDS011;14161;52.270;10.334;2022-07-22T10:48:50;2.28;;;1.23;;
26474;SDS011;14161;52.270;10.334;2022-07-22T10:51:11;3.53;;;1.40;;
26474;SDS011;14161;52.270;10.334;2022-07-22T10:53:54;2.90;;;1.50;;
26474;SDS011;14161;52.270;10.334;2022-07-22T10:56:28;2.33;;;1.50;;
26474;SDS011;14161;52.270;10.334;2022-07-22T11:01:38;2.05;;;1.33;;
26474;SDS011;14161;52.270;10.334;2022-07-22T11:04:13;2.72;;;1.50;;
26474;SDS011;14161;52.270;10.334;2022-07-22T11:06:59;3.47;;;1.55;;
26474;SDS011;14161;52.270;10.334;2022-07-22T11:09:31;3.22;;;1.70;;
26474;SDS011;14161;52.270;10.334;2022-07-22T11:11:58;3.30;;;1.77;;
26474;SDS011;14161;52.270;10.334;2022-07-22T11:16:52;5.07;;;2.03;;
26474;SDS011;14161;52.270;10.334;2022-07-22T11:19:22;2.25;;;1.50;;
26474;SDS011;14161;52.270;10.334;2022-07-22T11:21:50;4.60;;;1.65;;
26474;SDS011;14161;52.270;10.334;2022-07-22T11:24:17;3.67;;;1.20;;
26474;SDS011;14161;52.270;10.334;2022-07-22T11:26:44;1.30;;;1.10;;
26474;SDS011;14161;52.270;10.334;2022-07-22T11:29:25;2.90;;;1.40;;
26474;SDS011;14161;52.270;10.334;2022-07-22T11:31:52;2.88;;;1.40;;
26474;SDS011;14161;52.270;10.334;2022-07-22T11:34:19;2.58;;;1.45;;
26474;SDS011;14161;52.270;10.334;2022-07-22T11:36:46;4.35;;;2.20;;
26474;SDS011;14161;52.270;10.334;2022-07-22T11:39:13;2.80;;;1.75;;
26474;SDS011;14161;52.270;10.334;2022-07-22T11:41:40;2.50;;;1.48;;
26474;SDS011;14161;52.270;10.334;2022-07-22T11:44:05;4.45;;;1.60;;
26474;SDS011;14161;52.270;10.334;2022-07-22T11:46:39;5.38;;;2.17;;
26474;SDS011;14161;52.270;10.334;2022-07-22T11:49:06;2.42;;;1.63;;
26474;SDS011;14161;52.270;10.334;2022-07-22T11:51:33;1.58;;;1.48;;
26474;SDS011;14161;52.270;10.334;2022-07-22T11:54:00;3.53;;;1.63;;
26474;SDS011;14161;52.270;10.334;2022-07-22T11:56:26;2.40;;;1.52;;
26474;SDS011;14161;52.270;10.334;2022-07-22T11:58:53;2.83;;;1.92;;
26474;SDS011;14161;52.270;10.334;2022-07-22T12:01:28;4.25;;;2.55;;
26474;SDS011;14161;52.270;10.334;2022-07-22T12:03:57;3.80;;;2.67;;
26474;SDS011;14161;52.270;10.334;2022-07-22T12:06:40;4.32;;;2.70;;
26474;SDS011;14161;52.270;10.334;2022-07-22T12:11:46;3.92;;;2.58;;
26474;SDS011;14161;52.270;10.334;2022-07-22T12:14:16;2.17;;;1.98;;
26474;SDS011;14161;52.270;10.334;2022-07-22T12:17:00;6.43;;;2.83;;
26474;SDS011;14161;52.270;10.334;2022-07-22T12:19:28;5.47;;;2.70;;
26474;SDS011;14161;52.270;10.334;2022-07-22T12:22:05;8.23;;;3.00;;
26474;SDS011;14161;52.270;10.334;2022-07-22T12:24:33;4.32;;;3.08;;
26474;SDS011;14161;52.270;10.334;2022-07-22T12:29:31;4.65;;;2.72;;
26474;SDS011;14161;52.270;10.334;2022-07-22T12:32:17;4.80;;;2.83;;
26474;SDS011;14161;52.270;10.334;2022-07-22T12:42:40;6.05;;;3.10;;
26474;SDS011;14161;52.270;10.334;2022-07-22T12:47:49;3.38;;;2.45;;
26474;SDS011;14161;52.270;10.334;2022-07-22T12:53:04;2.97;;;1.50;;
26474;SDS011;14161;52.270;10.334;2022-07-22T12:55:31;2.70;;;2.05;;
26474;SDS011;14161;52.270;10.334;2022-07-22T12:57:58;2.85;;;1.92;;
26474;SDS011;14161;52.270;10.334;2022-07-22T13:00:24;2.20;;;1.63;;
26474;SDS011;14161;52.270;10.334;2022-07-22T13:03:35;3.63;;;2.15;;
26474;SDS011;14161;52.270;10.334;2022-07-22T13:06:01;3.40;;;2.10;;
26474;SDS011;14161;52.270;10.334;2022-07-22T13:08:28;2.80;;;1.90;;
26474;SDS011;14161;52.270;10.334;2022-07-22T13:10:54;3.75;;;2.20;;
26474;SDS011;14161;52.270;10.334;2022-07-22T13:13:21;5.82;;;2.35;;
26474;SDS011;14161;52.270;10.334;2022-07-22T13:15:47;3.25;;;2.05;;
26474;SDS011;14161;52.270;10.334;2022-07-22T13:18:13;3.63;;;2.08;;
26474;SDS011;14161;52.270;10.334;2022-07-22T13:20:39;5.75;;;2.08;;
26474;SDS011;14161;52.270;10.334;2022-07-22T13:23:05;3.55;;;2.10;;
26474;SDS011;14161;52.270;10.334;2022-07-22T13:25:30;6.05;;;2.60;;
26474;SDS011;14161;52.270;10.334;2022-07-22T13:27:57;7.57;;;2.30;;
26474;SDS011;14161;52.270;10.334;2022-07-22T13:30:23;5.32;;;2.10;;
26474;SDS011;14161;52.270;10.334;2022-07-22T13:32:48;2.85;;;1.95;;
26474;SDS011;14161;52.270;10.334;2022-07-22T13:35:14;3.42;;;2.35;;
26474;SDS011;14161;52.270;10.334;2022-07-22T13:37:40;2.72;;;2.03;;
26474;SDS011;14161;52.270;10.334;2022-07-22T13:40:06;3.60;;;2.25;;
26474;SDS011;14161;52.270;10.334;2022-07-22T13:42:33;4.38;;;2.50;;
26474;SDS011;14161;52.270;10.334;2022-07-22T13:44:58;6.60;;;3.00;;
26474;SDS011;14161;52.270;10.334;2022-07-22T13:47:24;4.20;;;3.25;;
26474;SDS011;14161;52.270;10.334;2022-07-22T13:49:52;4.60;;;2.88;;
26474;SDS011;14161;52.270;10.334;2022-07-22T13:52:18;5.30;;;3.40;;
26474;SDS011;14161;52.270;10.334;2022-07-22T13:54:44;4.32;;;3.20;;
26474;SDS011;14161;52.270;10.334;2022-07-22T13:57:09;3.78;;;2.88;;
26474;SDS011;14161;52.270;10.334;2022-07-22T13:59:38;3.55;;;2.80;;
26474;SDS011;14161;52.270;10.334;2022-07-22T14:02:04;5.10;;;2.35;;
26474;SDS011;14161;52.270;10.334;2022-07-22T14:04:30;5.45;;;2.63;;
26474;SDS011;14161;52.270;10.334;2022-07-22T14:06:55;2.90;;;2.20;;
26474;SDS011;14161;52.270;10.334;2022-07-22T14:09:21;5.70;;;2.17;;
26474;SDS011;14161;52.270;10.334;2022-07-22T14:11:46;3.40;;;2.25;;
26474;SDS011;14161;52.270;10.334;2022-07-22T14:14:12;5.88;;;1.80;;
26474;SDS011;14161;52.270;10.334;2022-07-22T14:16:38;3.00;;;1.92;;
26474;SDS011;14161;52.270;10.334;2022-07-22T14:19:05;4.40;;;2.03;;
26474;SDS011;14161;52.270;10.334;2022-07-22T14:21:38;2.40;;;1.80;;
26474;SDS011;14161;52.270;10.334;2022-07-22T14:24:05;2.22;;;1.52;;
26474;SDS011;14161;52.270;10.334;2022-07-22T14:26:31;2.40;;;2.03;;
26474;SDS011;14161;52.270;10.334;2022-07-22T14:28:57;2.88;;;1.88;;
26474;SDS011;14161;52.270;10.334;2022-07-22T14:31:23;3.15;;;2.30;;
26474;SDS011;14161;52.270;10.334;2022-07-22T14:33:49;2.15;;;1.70;;
26474;SDS011;14161;52.270;10.334;2022-07-22T14:36:14;5.53;;;1.77;;
26474;SDS011;14161;52.270;10.334;2022-07-22T14:38:40;2.25;;;1.85;;
26474;SDS011;14161;52.270;10.334;2022-07-22T14:41:06;2.70;;;1.50;;
26474;SDS011;14161;52.270;10.334;2022-07-22T14:43:34;3.72;;;1.95;;
26474;SDS011;14161;52.270;10.334;2022-07-22T14:46:01;5.25;;;2.70;;
26474;SDS011;14161;52.270;10.334;2022-07-22T14:48:28;4.90;;;2.25;;
26474;SDS011;14161;52.270;10.334;2022-07-22T14:50:54;4.75;;;2.55;;
26474;SDS011;14161;52.270;10.334;2022-07-22T14:53:19;6.53;;;2.85;;
26474;SDS011;14161;52.270;10.334;2022-07-22T14:55:45;3.90;;;2.90;;
26474;SDS011;14161;52.270;10.334;2022-07-22T14:58:10;5.72;;;2.85;;
26474;SDS011;14161;52.270;10.334;2022-07-22T15:00:36;4.55;;;2.95;;
26474;SDS011;14161;52.270;10.334;2022-07-22T15:03:02;4.38;;;2.60;;
26474;SDS011;14161;52.270;10.334;2022-07-22T15:05:27;3.88;;;2.92;;
26474;SDS011;14161;52.270;10.334;2022-07-22T15:07:53;3.83;;;2.70;;
26474;SDS011;14161;52.270;10.334;2022-07-22T15:10:26;3.72;;;2.55;;